Time;durP1;ratioP1;P1;durP2;ratioP2;P2;SDS_P1;SDS_P2;PMS_P1;PMS_P2;Temp;Humidity;BMP_temperature;BMP_pressure;BME280_temperature;BME280_humidity;BME280_pressure;Samples;Min_cycle;Max_cycle;Signal;HPM_P1;HPM_P2
2021/12/09 00:01:59;;;;;;;37.23;18.30;;;;;;;3.76;100.00;97798.13;5088577;28;20222;-83
2021/12/09 00:04:31;;;;;;;37.27;18.77;;;;;;;3.69;100.00;97803.72;5090248;28;20800;-83
2021/12/09 00:07:01;;;;;;;35.27;19.07;;;;;;;3.63;100.00;97795.38;5091743;28;20196;-83
2021/12/09 00:09:31;;;;;;;37.43;19.23;;;;;;;3.54;100.00;97814.22;5034791;28;20217;-83
2021/12/09 00:12:00;;;;;;;41.67;19.03;;;;;;;3.45;100.00;97808.59;5015598;28;20751;-82
2021/12/09 00:14:34;;;;;;;42.20;19.87;;;;;;;3.38;100.00;97815.13;4952983;28;20193;-83
2021/12/09 00:17:05;;;;;;;43.13;21.23;;;;;;;3.32;100.00;97828.53;4953104;28;20207;-82
2021/12/09 00:19:36;;;;;;;43.17;21.37;;;;;;;3.41;100.00;97820.16;4951169;29;20228;-83
2021/12/09 00:22:11;;;;;;;45.10;22.13;;;;;;;3.53;100.00;97817.78;4949102;29;20207;-83
2021/12/09 00:24:39;;;;;;;41.90;20.80;;;;;;;3.62;100.00;97819.88;4950875;28;20207;-83
2021/12/09 00:27:08;;;;;;;38.10;20.33;;;;;;;3.66;100.00;97819.59;4972023;28;20199;-83
2021/12/09 00:29:39;;;;;;;39.03;20.23;;;;;;;3.68;100.00;97823.00;5050554;28;20209;-83
2021/12/09 00:32:08;;;;;;;41.13;19.43;;;;;;;3.76;100.00;97821.69;5054033;28;20197;-83
2021/12/09 00:34:40;;;;;;;41.80;19.97;;;;;;;3.79;100.00;97829.38;5050021;28;20189;-83
2021/12/09 00:37:19;;;;;;;33.63;19.23;;;;;;;3.76;100.00;97832.16;5047891;28;20205;-83
2021/12/09 00:39:49;;;;;;;35.33;18.47;;;;;;;3.77;100.00;97834.72;5049397;28;20208;-83
2021/12/09 00:42:18;;;;;;;32.63;18.37;;;;;;;3.76;100.00;97840.84;5053779;27;20691;-83
2021/12/09 00:44:47;;;;;;;39.07;19.53;;;;;;;3.75;100.00;97836.56;5053338;28;20635;-83
2021/12/09 00:47:15;;;;;;;32.77;18.50;;;;;;;3.75;100.00;97831.31;5052114;28;20205;-83
2021/12/09 00:49:44;;;;;;;36.50;20.07;;;;;;;3.82;100.00;97843.13;5045903;28;20217;-83
2021/12/09 00:52:15;;;;;;;38.90;18.50;;;;;;;3.89;100.00;97844.47;5048453;28;20222;-83
2021/12/09 00:54:46;;;;;;;40.97;19.63;;;;;;;3.90;100.00;97845.31;5046691;28;20201;-83
2021/12/09 00:57:14;;;;;;;43.13;20.27;;;;;;;3.85;100.00;97840.31;5050355;28;20193;-83
2021/12/09 00:59:42;;;;;;;40.20;20.30;;;;;;;3.85;100.00;97848.19;5045876;28;20201;-83
2021/12/09 01:02:11;;;;;;;38.10;19.37;;;;;;;3.88;100.00;97853.25;5051523;28;20200;-83
2021/12/09 01:04:40;;;;;;;38.03;19.30;;;;;;;3.84;100.00;97848.28;5048260;28;20201;-83
2021/12/09 01:07:09;;;;;;;38.70;19.37;;;;;;;3.80;100.00;97846.78;5051747;28;20209;-83
2021/12/09 01:09:38;;;;;;;35.83;19.90;;;;;;;3.80;100.00;97842.38;5050414;28;20219;-83
2021/12/09 01:12:08;;;;;;;39.97;20.03;;;;;;;3.81;100.00;97841.44;5051145;28;20193;-83
2021/12/09 01:14:37;;;;;;;38.57;19.77;;;;;;;3.78;100.00;97849.50;5030230;28;20193;-83
2021/12/09 01:17:08;;;;;;;38.60;20.37;;;;;;;3.84;100.00;97849.13;5050563;28;20189;-83
2021/12/09 01:19:37;;;;;;;35.20;20.03;;;;;;;3.81;100.00;97849.31;5063572;27;20678;-83
2021/12/09 01:22:06;;;;;;;44.00;21.03;;;;;;;3.78;100.00;97854.72;5049203;28;20196;-84
2021/12/09 01:24:34;;;;;;;44.60;21.67;;;;;;;3.87;100.00;97859.44;5027577;28;20193;-83
2021/12/09 01:27:05;;;;;;;45.40;21.67;;;;;;;3.88;100.00;97858.50;5052199;28;20201;-82
2021/12/09 01:29:36;;;;;;;43.07;20.67;;;;;;;3.78;100.00;97851.28;5071368;28;20253;-82
2021/12/09 01:32:08;;;;;;;45.70;21.40;;;;;;;3.77;100.00;97849.59;5085600;27;20206;-82
2021/12/09 01:34:37;;;;;;;41.80;21.07;;;;;;;3.73;100.00;97849.75;5074056;27;20687;-83
2021/12/09 01:37:06;;;;;;;45.40;20.70;;;;;;;3.79;100.00;97853.78;5049634;28;20226;-83
2021/12/09 01:39:34;;;;;;;43.50;21.27;;;;;;;3.77;100.00;97855.66;5055280;27;20192;-83
2021/12/09 01:42:05;;;;;;;38.50;20.03;;;;;;;3.89;100.00;97852.31;4989055;28;20201;-83
2021/12/09 01:44:33;;;;;;;37.23;18.87;;;;;;;3.82;100.00;97853.59;4989150;28;20198;-83
2021/12/09 01:47:01;;;;;;;33.10;18.13;;;;;;;3.80;100.00;97852.84;4983193;28;20195;-82
2021/12/09 01:49:30;;;;;;;31.50;18.00;;;;;;;3.79;100.00;97852.94;4980675;28;20206;-83
2021/12/09 01:51:58;;;;;;;30.47;18.00;;;;;;;3.76;100.00;97860.97;4982105;28;20264;-83
2021/12/09 01:54:27;;;;;;;28.43;16.53;;;;;;;3.67;100.00;97851.88;4979073;28;20207;-83
2021/12/09 01:56:55;;;;;;;31.60;17.43;;;;;;;3.66;100.00;97855.41;4988964;28;20191;-83
2021/12/09 01:59:25;;;;;;;30.30;17.33;;;;;;;3.67;100.00;97857.97;4998253;28;20196;-83
2021/12/09 02:01:53;;;;;;;32.93;18.23;;;;;;;3.67;100.00;97854.50;5050476;28;20197;-83
2021/12/09 02:04:22;;;;;;;29.73;17.23;;;;;;;3.60;100.00;97856.63;5053933;28;20205;-83
2021/12/09 02:06:52;;;;;;;28.77;16.90;;;;;;;3.68;100.00;97850.94;5053887;27;20185;-83
2021/12/09 02:09:20;;;;;;;29.63;17.37;;;;;;;3.62;100.00;97846.91;5048982;28;20195;-83
2021/12/09 02:11:50;;;;;;;27.47;17.30;;;;;;;3.39;100.00;97845.59;5046628;28;20215;-82
2021/12/09 02:14:20;;;;;;;28.70;16.63;;;;;;;3.47;100.00;97854.75;5050213;28;20650;-83
2021/12/09 02:16:49;;;;;;;34.40;18.60;;;;;;;3.56;100.00;97849.00;5047437;28;20197;-83
2021/12/09 02:19:18;;;;;;;32.43;18.70;;;;;;;3.42;100.00;97853.25;5050042;28;20197;-83
2021/12/09 02:21:48;;;;;;;32.00;16.87;;;;;;;3.58;100.00;97857.66;5050303;28;20571;-83
2021/12/09 02:24:17;;;;;;;30.47;17.80;;;;;;;3.60;100.00;97847.91;5049921;28;20212;-83
2021/12/09 02:26:49;;;;;;;30.47;16.53;;;;;;;3.56;100.00;97849.00;5049700;28;20321;-83
2021/12/09 02:29:18;;;;;;;28.63;17.00;;;;;;;3.60;100.00;97845.31;5047446;28;20247;-83
2021/12/09 02:31:47;;;;;;;32.80;18.43;;;;;;;3.62;100.00;97840.81;5045044;28;20242;-83
2021/12/09 02:34:16;;;;;;;30.60;17.23;;;;;;;3.68;100.00;97846.56;5049728;28;20190;-83
2021/12/09 02:36:50;;;;;;;29.57;16.40;;;;;;;3.68;100.00;97845.72;5042781;28;20197;-83
2021/12/09 02:39:22;;;;;;;31.43;17.77;;;;;;;3.63;100.00;97840.72;5047441;28;20225;-82
2021/12/09 02:41:52;;;;;;;30.17;17.63;;;;;;;3.55;100.00;97852.56;5044242;28;20204;-83
2021/12/09 02:44:22;;;;;;;30.53;16.40;;;;;;;3.51;100.00;97851.06;5049696;28;20205;-83
2021/12/09 02:46:53;;;;;;;36.27;18.00;;;;;;;3.62;100.00;97846.06;5049802;28;20640;-83
2021/12/09 02:49:26;;;;;;;30.23;17.53;;;;;;;3.59;100.00;97841.00;5052084;28;20200;-83
2021/12/09 02:51:57;;;;;;;34.93;18.67;;;;;;;3.53;100.00;97838.72;5048286;28;20212;-83
2021/12/09 02:54:27;;;;;;;34.10;18.23;;;;;;;3.53;100.00;97838.72;5011688;28;20205;-83
2021/12/09 02:57:02;;;;;;;33.30;17.50;;;;;;;3.52;100.00;97843.13;5007262;28;20206;-83
2021/12/09 02:59:33;;;;;;;32.07;17.97;;;;;;;3.56;100.00;97852.47;5011440;28;20247;-83
2021/12/09 03:02:03;;;;;;;29.10;16.83;;;;;;;3.49;100.00;97855.53;5014951;28;20205;-83
2021/12/09 03:04:40;;;;;;;30.80;17.93;;;;;;;3.48;100.00;97848.63;5007730;28;20194;-83
2021/12/09 03:07:12;;;;;;;30.27;17.40;;;;;;;3.48;100.00;97852.09;5010404;28;20208;-83
2021/12/09 03:09:49;;;;;;;32.50;18.03;;;;;;;3.53;100.00;97865.75;5008419;28;20191;-83
2021/12/09 03:12:21;;;;;;;34.90;18.03;;;;;;;3.49;100.00;97851.16;5021719;28;20223;-83
2021/12/09 03:14:49;;;;;;;29.83;17.17;;;;;;;3.54;100.00;97849.09;5053057;28;20185;-83
2021/12/09 03:17:19;;;;;;;27.10;15.60;;;;;;;3.59;100.00;97835.78;5052973;28;20198;-83
2021/12/09 03:19:50;;;;;;;27.53;16.70;;;;;;;3.57;100.00;97838.47;5050544;28;20216;-83
2021/12/09 03:22:19;;;;;;;26.33;16.63;;;;;;;3.55;100.00;97842.09;5057803;27;20197;-83
2021/12/09 03:24:48;;;;;;;27.90;15.80;;;;;;;3.43;100.00;97847.09;5045861;28;20253;-83
2021/12/09 03:27:16;;;;;;;27.80;16.00;;;;;;;3.27;100.00;97842.78;5050498;28;20213;-83
2021/12/09 03:29:45;;;;;;;25.70;15.73;;;;;;;3.36;100.00;97853.59;5051347;28;20242;-83
2021/12/09 03:32:17;;;;;;;29.07;15.40;;;;;;;3.44;100.00;97855.78;5048942;28;20670;-83
2021/12/09 03:34:47;;;;;;;26.40;15.50;;;;;;;3.40;100.00;97856.91;5052903;27;20186;-83
2021/12/09 03:37:20;;;;;;;23.60;15.37;;;;;;;3.44;100.00;97850.56;5044943;28;20208;-83
2021/12/09 03:39:52;;;;;;;24.33;15.10;;;;;;;3.58;100.00;97855.03;5044371;28;20201;-83
2021/12/09 03:42:27;;;;;;;26.60;15.90;;;;;;;3.44;100.00;97866.25;5041373;28;20251;-83
2021/12/09 03:44:56;;;;;;;24.77;15.67;;;;;;;3.44;100.00;97866.25;5052721;27;20193;-83
2021/12/09 03:47:28;;;;;;;27.17;14.93;;;;;;;3.33;100.00;97876.47;5051597;28;20234;-83
2021/12/09 03:49:57;;;;;;;28.17;15.23;;;;;;;3.35;100.00;97882.47;5047746;28;20201;-83
2021/12/09 03:52:28;;;;;;;22.00;13.70;;;;;;;3.43;100.00;97885.50;5049374;28;20713;-83
2021/12/09 03:54:59;;;;;;;25.93;14.23;;;;;;;3.40;100.00;97886.53;5051883;28;20197;-83
2021/12/09 03:57:27;;;;;;;27.43;14.57;;;;;;;3.34;100.00;97883.41;5051256;28;20189;-83
2021/12/09 03:59:55;;;;;;;24.43;14.60;;;;;;;3.32;100.00;97887.88;5051619;28;20208;-83
2021/12/09 04:02:24;;;;;;;23.73;14.67;;;;;;;3.38;100.00;97892.78;5051708;28;20209;-83
2021/12/09 04:04:53;;;;;;;21.37;13.67;;;;;;;3.34;100.00;97896.47;5051676;27;20201;-83
2021/12/09 04:07:21;;;;;;;27.67;14.57;;;;;;;3.35;100.00;97892.94;5047713;28;20201;-83
2021/12/09 04:09:51;;;;;;;25.07;14.47;;;;;;;3.37;100.00;97898.91;5051287;28;20712;-83
2021/12/09 04:12:21;;;;;;;24.53;14.23;;;;;;;3.33;100.00;97900.88;5046876;28;20213;-83
2021/12/09 04:14:50;;;;;;;22.47;14.40;;;;;;;3.32;100.00;97898.34;5009730;28;20195;-83
2021/12/09 04:17:18;;;;;;;24.53;13.60;;;;;;;3.26;100.00;97896.91;5009535;28;20252;-83
2021/12/09 04:19:48;;;;;;;21.67;14.47;;;;;;;3.37;100.00;97907.63;4991206;28;20195;-83
2021/12/09 04:22:18;;;;;;;23.57;14.07;;;;;;;3.29;100.00;97917.69;4956531;28;20198;-83
2021/12/09 04:24:49;;;;;;;26.67;14.80;;;;;;;3.35;100.00;97924.34;5009572;28;20235;-83
2021/12/09 04:27:21;;;;;;;23.30;13.80;;;;;;;3.25;100.00;97921.38;5004888;28;20198;-83
2021/12/09 04:29:49;;;;;;;21.73;14.37;;;;;;;3.35;100.00;97929.56;5007555;28;20204;-82
2021/12/09 04:32:17;;;;;;;24.30;14.60;;;;;;;3.27;100.00;97921.28;5012617;28;20629;-83
2021/12/09 04:34:47;;;;;;;25.60;14.13;;;;;;;3.29;100.00;97924.69;5051109;28;20201;-83
2021/12/09 04:37:15;;;;;;;26.37;14.80;;;;;;;3.29;100.00;97929.91;5041065;28;20248;-83
2021/12/09 04:39:43;;;;;;;25.57;14.60;;;;;;;3.39;100.00;97931.09;5046706;28;20205;-83
2021/12/09 04:42:11;;;;;;;24.77;14.20;;;;;;;3.27;100.00;97922.13;5047931;28;20197;-83
2021/12/09 04:44:41;;;;;;;24.83;14.87;;;;;;;3.27;100.00;97906.44;5109413;28;20359;-83
2021/12/09 04:47:11;;;;;;;26.63;14.97;;;;;;;3.34;100.00;97920.88;5109623;28;20237;-83
2021/12/09 04:49:40;;;;;;;22.43;13.97;;;;;;;3.41;100.00;97916.16;5106793;28;20277;-83
2021/12/09 04:52:09;;;;;;;24.23;13.87;;;;;;;3.37;100.00;97918.06;5105316;28;20214;-83
2021/12/09 04:54:41;;;;;;;21.20;14.07;;;;;;;3.39;100.00;97931.94;5109525;28;20191;-83
2021/12/09 04:57:10;;;;;;;24.63;13.90;;;;;;;3.42;100.00;97928.31;5108243;28;20187;-83
2021/12/09 04:59:39;;;;;;;22.57;13.07;;;;;;;3.50;100.00;97920.88;5094773;28;20206;-83
2021/12/09 05:02:15;;;;;;;24.40;14.80;;;;;;;3.44;100.00;97924.66;5090341;28;20198;-83
2021/12/09 05:04:43;;;;;;;26.07;14.83;;;;;;;3.46;100.00;97916.72;5046441;28;20212;-83
2021/12/09 05:07:12;;;;;;;24.80;15.43;;;;;;;3.41;100.00;97921.41;5049125;28;20205;-83
2021/12/09 05:09:49;;;;;;;22.90;14.57;;;;;;;3.43;100.00;97915.13;5049442;28;20609;-83
2021/12/09 05:12:18;;;;;;;20.17;13.77;;;;;;;3.42;100.00;97910.84;5050153;28;20216;-83
2021/12/09 05:14:47;;;;;;;22.20;15.20;;;;;;;3.42;100.00;97910.00;5045420;28;20201;-83
2021/12/09 05:17:18;;;;;;;26.77;13.83;;;;;;;3.49;100.00;97906.13;5048957;28;20197;-83
2021/12/09 05:19:47;;;;;;;20.33;14.00;;;;;;;3.49;100.00;97903.50;5050280;28;20249;-83
2021/12/09 05:22:16;;;;;;;20.60;14.07;;;;;;;3.47;100.00;97907.94;5049208;28;20204;-83
2021/12/09 05:24:48;;;;;;;20.50;12.93;;;;;;;3.40;100.00;97904.84;5050148;28;20197;-83
2021/12/09 05:27:17;;;;;;;19.77;12.33;;;;;;;3.22;100.00;97905.00;5047722;28;20656;-83
2021/12/09 05:30:02;;;;;;;20.27;13.10;;;;;;;3.34;100.00;97904.34;5054403;28;20212;-83
2021/12/09 05:32:33;;;;;;;19.60;12.70;;;;;;;3.40;100.00;97902.22;5049991;28;20225;-83
2021/12/09 05:35:01;;;;;;;20.33;13.57;;;;;;;3.41;100.00;97911.75;5049772;28;20230;-83
2021/12/09 05:37:30;;;;;;;18.87;12.97;;;;;;;3.39;100.00;97913.63;5048711;28;20314;-83
2021/12/09 05:39:59;;;;;;;24.53;13.23;;;;;;;3.41;100.00;97913.53;5048600;28;20193;-83
2021/12/09 05:42:31;;;;;;;21.73;12.87;;;;;;;3.44;100.00;97921.22;5049467;28;20192;-84
2021/12/09 05:44:59;;;;;;;21.57;12.73;;;;;;;3.47;100.00;97925.44;5054392;27;20269;-83
2021/12/09 05:47:29;;;;;;;21.73;12.93;;;;;;;3.43;100.00;97927.38;5049880;28;20193;-83
2021/12/09 05:50:00;;;;;;;23.07;14.00;;;;;;;3.44;100.00;97922.06;5056023;27;20205;-83
2021/12/09 05:52:28;;;;;;;20.00;12.57;;;;;;;3.40;100.00;97931.00;5048313;28;20216;-83
2021/12/09 05:54:57;;;;;;;20.67;12.57;;;;;;;3.45;100.00;97936.81;5047022;28;20204;-83
2021/12/09 05:57:25;;;;;;;20.37;13.10;;;;;;;3.48;100.00;97935.00;5046816;28;20193;-83
2021/12/09 05:59:55;;;;;;;20.37;13.37;;;;;;;3.38;100.00;97940.72;5048583;28;20189;-83
2021/12/09 06:02:23;;;;;;;20.30;13.07;;;;;;;3.47;100.00;97944.59;5048335;28;20197;-83
2021/12/09 06:04:52;;;;;;;27.43;16.37;;;;;;;3.49;100.00;97937.53;5049905;28;20204;-83
2021/12/09 06:07:22;;;;;;;24.00;16.20;;;;;;;3.62;100.00;97943.75;5047743;28;20208;-83
2021/12/09 06:09:50;;;;;;;22.27;13.73;;;;;;;3.67;100.00;97933.88;5044735;28;20226;-83
2021/12/09 06:12:20;;;;;;;21.17;14.23;;;;;;;3.65;100.00;97937.50;5049639;28;20197;-83
2021/12/09 06:14:48;;;;;;;19.73;13.83;;;;;;;3.56;100.00;97917.06;5048522;28;20189;-83
2021/12/09 06:17:16;;;;;;;19.03;12.20;;;;;;;3.49;100.00;97907.88;5049471;28;20193;-83
2021/12/09 06:19:44;;;;;;;18.37;11.80;;;;;;;3.34;100.00;97917.41;5043158;28;20241;-83
2021/12/09 06:22:13;;;;;;;19.10;11.97;;;;;;;3.32;100.00;97914.88;5050345;28;20205;-83
2021/12/09 06:24:44;;;;;;;22.20;11.97;;;;;;;3.21;100.00;97916.41;5047210;28;20220;-83
2021/12/09 06:27:14;;;;;;;27.23;15.63;;;;;;;3.26;100.00;97922.22;5050026;28;20619;-83
2021/12/09 06:29:42;;;;;;;19.07;12.57;;;;;;;2.97;100.00;97924.63;5052898;28;20218;-83
2021/12/09 06:32:11;;;;;;;23.13;13.13;;;;;;;2.92;100.00;97936.28;5052414;28;20205;-83
2021/12/09 06:34:40;;;;;;;20.43;12.07;;;;;;;2.98;100.00;97938.53;5048446;28;20201;-83
2021/12/09 06:37:09;;;;;;;24.93;13.70;;;;;;;2.82;100.00;97944.59;5049185;28;20647;-83
2021/12/09 06:39:37;;;;;;;31.00;15.07;;;;;;;2.99;100.00;97946.34;5053017;28;20208;-83
2021/12/09 06:42:08;;;;;;;47.77;15.50;;;;;;;2.87;100.00;97944.34;5050135;28;20195;-82
2021/12/09 06:44:37;;;;;;;92.00;21.97;;;;;;;2.88;100.00;97946.88;5051977;28;20197;-83
2021/12/09 06:47:05;;;;;;;55.90;16.87;;;;;;;2.84;100.00;97953.19;5052917;28;20205;-83
2021/12/09 06:49:33;;;;;;;105.70;20.83;;;;;;;2.79;100.00;97957.81;5051779;28;20249;-83
2021/12/09 06:52:01;;;;;;;122.07;19.93;;;;;;;2.66;100.00;97950.69;5050322;28;20205;-83
2021/12/09 06:54:29;;;;;;;74.27;16.77;;;;;;;2.71;100.00;97952.16;5053500;28;20220;-83
2021/12/09 06:56:58;;;;;;;45.53;15.30;;;;;;;2.76;100.00;97968.44;5057553;28;20197;-83
2021/12/09 06:59:28;;;;;;;51.07;16.60;;;;;;;2.72;100.00;97959.06;5066516;27;20201;-83
2021/12/09 07:01:56;;;;;;;46.97;17.30;;;;;;;2.77;100.00;97964.06;5054827;28;20204;-82
2021/12/09 07:04:24;;;;;;;44.57;17.27;;;;;;;2.85;100.00;97972.34;5049736;28;20212;-83
2021/12/09 07:06:53;;;;;;;176.03;23.00;;;;;;;2.71;100.00;97965.22;5051096;28;20198;-83
2021/12/09 07:09:22;;;;;;;99.77;20.77;;;;;;;2.82;100.00;97973.34;5052935;28;20201;-83
2021/12/09 07:11:52;;;;;;;66.33;19.40;;;;;;;2.68;100.00;97986.28;5047825;28;20189;-83
2021/12/09 07:14:20;;;;;;;117.17;21.07;;;;;;;2.70;100.00;98001.88;5046709;28;20220;-83
2021/12/09 07:16:49;;;;;;;188.00;26.03;;;;;;;2.40;100.00;98004.28;5050203;28;20200;-82
2021/12/09 07:19:18;;;;;;;88.13;17.80;;;;;;;2.48;100.00;98013.41;5047183;28;20221;-83
2021/12/09 07:21:46;;;;;;;171.53;21.70;;;;;;;2.51;100.00;98015.03;5051262;28;20205;-83
2021/12/09 07:24:18;;;;;;;194.63;22.80;;;;;;;2.41;100.00;98025.09;5015630;28;20264;-83
2021/12/09 07:26:47;;;;;;;195.83;25.07;;;;;;;2.11;100.00;98030.03;5056881;27;20249;-83
2021/12/09 07:29:15;;;;;;;154.87;20.87;;;;;;;2.38;100.00;98030.47;5050765;28;20237;-83
2021/12/09 07:31:43;;;;;;;172.20;24.33;;;;;;;2.45;100.00;98031.88;5045515;28;20205;-84
2021/12/09 07:34:13;;;;;;;125.20;22.17;;;;;;;2.48;100.00;98034.31;5051351;28;20232;-84
2021/12/09 07:36:42;;;;;;;198.43;25.57;;;;;;;2.46;100.00;98041.41;5050541;28;20205;-84
2021/12/09 07:39:10;;;;;;;142.23;21.30;;;;;;;2.53;100.00;98037.56;5049182;28;20668;-84
2021/12/09 07:41:38;;;;;;;185.40;26.10;;;;;;;2.17;100.00;98041.97;5052299;28;20257;-84
2021/12/09 07:44:07;;;;;;;295.90;30.23;;;;;;;2.05;100.00;98045.19;5042808;28;20205;-84
2021/12/09 07:46:36;;;;;;;140.80;21.20;;;;;;;2.13;100.00;98049.13;5051931;28;20200;-84
2021/12/09 07:49:06;;;;;;;138.87;21.20;;;;;;;2.32;100.00;98053.44;5050612;28;20219;-84
2021/12/09 07:51:35;;;;;;;155.17;22.30;;;;;;;2.28;100.00;98055.34;5051476;28;20283;-84
2021/12/09 07:54:04;;;;;;;84.10;18.70;;;;;;;2.30;100.00;98059.56;5065183;27;20216;-84
2021/12/09 07:56:33;;;;;;;114.33;24.73;;;;;;;2.14;100.00;98058.66;5051565;28;20197;-84
2021/12/09 07:59:02;;;;;;;70.47;19.60;;;;;;;2.36;100.00;98055.84;5051313;28;20220;-84
2021/12/09 08:01:30;;;;;;;42.67;17.43;;;;;;;2.51;100.00;98059.44;5045683;28;20250;-84
2021/12/09 08:04:01;;;;;;;27.83;15.17;;;;;;;2.57;100.00;98056.53;5047385;28;20712;-84
2021/12/09 08:06:29;;;;;;;43.53;21.50;;;;;;;2.54;100.00;98059.31;5045363;28;20201;-84
2021/12/09 08:08:59;;;;;;;29.20;14.07;;;;;;;2.66;100.00;98065.69;5051070;28;20670;-84
2021/12/09 08:11:28;;;;;;;37.47;18.67;;;;;;;2.65;100.00;98059.63;5050205;28;20670;-83
2021/12/09 08:13:56;;;;;;;26.33;15.27;;;;;;;2.64;100.00;98064.94;5052893;28;20298;-83
2021/12/09 08:16:25;;;;;;;25.60;14.53;;;;;;;2.67;100.00;98065.63;5051043;28;20193;-85
2021/12/09 08:18:57;;;;;;;29.77;16.93;;;;;;;2.79;100.00;98061.53;5051001;28;20253;-85
2021/12/09 08:21:27;;;;;;;31.13;14.27;;;;;;;2.94;100.00;98059.94;5047488;28;20209;-85
2021/12/09 08:23:55;;;;;;;27.33;15.03;;;;;;;2.84;100.00;98052.56;5057657;27;20205;-85
2021/12/09 08:26:27;;;;;;;31.27;14.53;;;;;;;2.82;100.00;98045.72;5045081;28;20700;-85
2021/12/09 08:28:56;;;;;;;50.90;16.53;;;;;;;2.82;100.00;98053.56;5048291;28;20217;-84
2021/12/09 08:31:27;;;;;;;29.10;17.13;;;;;;;2.72;100.00;98062.78;5040151;28;20254;-84
2021/12/09 08:34:04;;;;;;;36.10;17.23;;;;;;;2.86;100.00;98058.53;5053211;27;20247;-85
2021/12/09 08:36:46;;;;;;;42.33;18.17;;;;;;;2.82;100.00;98067.47;5047160;28;20208;-85
2021/12/09 08:39:21;;;;;;;60.00;19.40;;;;;;;2.82;100.00;98067.47;5045997;28;20689;-84
2021/12/09 08:41:51;;;;;;;35.00;16.77;;;;;;;2.73;100.00;98069.72;5049721;28;20200;-83
2021/12/09 08:44:19;;;;;;;24.83;15.57;;;;;;;2.79;100.00;98061.53;5046755;28;20651;-84
2021/12/09 08:46:49;;;;;;;25.60;14.63;;;;;;;2.74;100.00;98069.63;5051531;28;20204;-83
2021/12/09 08:49:18;;;;;;;26.37;14.03;;;;;;;2.76;100.00;98074.78;5053177;28;20225;-83
2021/12/09 08:51:48;;;;;;;27.60;14.40;;;;;;;2.71;100.00;98080.25;5049388;28;20222;-84
2021/12/09 08:54:17;;;;;;;24.90;14.17;;;;;;;2.85;100.00;98077.78;5050736;28;20217;-84
2021/12/09 08:56:50;;;;;;;24.17;14.33;;;;;;;3.12;100.00;98075.53;5049546;28;20272;-83
2021/12/09 08:59:22;;;;;;;23.90;13.73;;;;;;;3.07;100.00;98085.38;5050688;28;20253;-83
2021/12/09 09:02:06;;;;;;;26.63;14.20;;;;;;;2.99;100.00;98079.72;5056350;27;20212;-83
2021/12/09 09:04:35;;;;;;;20.93;13.30;;;;;;;3.04;100.00;98082.06;5015283;28;20192;-83
2021/12/09 09:07:07;;;;;;;23.33;13.60;;;;;;;3.10;100.00;98081.78;5047915;28;20212;-83
2021/12/09 09:09:38;;;;;;;19.07;12.57;;;;;;;3.17;100.00;98073.50;5047294;28;20639;-83
2021/12/09 09:12:10;;;;;;;25.60;13.37;;;;;;;3.19;100.00;98077.84;5055140;27;20224;-83
2021/12/09 09:14:40;;;;;;;23.13;13.20;;;;;;;3.35;100.00;98063.88;5056455;27;20217;-83
2021/12/09 09:17:10;;;;;;;33.93;12.90;;;;;;;3.36;100.00;98068.16;5050478;28;20193;-83
2021/12/09 09:19:38;;;;;;;23.37;12.63;;;;;;;3.30;100.00;98059.81;5050157;28;20246;-83
2021/12/09 09:22:08;;;;;;;25.47;11.30;;;;;;;3.15;100.00;98067.53;5051072;27;20193;-82
2021/12/09 09:24:37;;;;;;;20.40;12.33;;;;;;;3.15;100.00;98071.91;5050074;28;20249;-83
2021/12/09 09:27:05;;;;;;;25.03;12.13;;;;;;;3.22;100.00;98075.91;5047617;28;20190;-83
2021/12/09 09:29:34;;;;;;;21.30;10.80;;;;;;;3.19;100.00;98089.16;5050194;28;20220;-83
2021/12/09 09:32:05;;;;;;;23.77;12.60;;;;;;;3.13;100.00;98079.00;5050259;28;20208;-83
2021/12/09 09:34:37;;;;;;;23.30;12.70;;;;;;;3.17;100.00;98089.22;5050042;28;20212;-83
2021/12/09 09:37:06;;;;;;;19.00;11.43;;;;;;;3.23;100.00;98080.22;5049579;28;20612;-84
2021/12/09 09:39:35;;;;;;;22.97;12.43;;;;;;;3.14;100.00;98085.91;5049632;28;20652;-84
2021/12/09 09:42:20;;;;;;;18.33;12.63;;;;;;;3.21;100.00;98089.91;5050375;28;20201;-84
2021/12/09 09:44:54;;;;;;;16.03;10.47;;;;;;;2.45;100.00;98097.19;5049409;28;20199;-83
2021/12/09 09:47:30;;;;;;;18.33;10.70;;;;;;;2.51;100.00;98088.19;5048059;28;20192;-83
2021/12/09 09:49:59;;;;;;;15.27;9.10;;;;;;;2.69;100.00;98087.28;5049904;28;20241;-83
2021/12/09 09:52:28;;;;;;;14.20;9.23;;;;;;;2.79;100.00;98085.91;5047704;28;20189;-84
2021/12/09 09:54:57;;;;;;;15.90;10.67;;;;;;;2.54;100.00;98078.47;5049947;28;20284;-83
2021/12/09 09:57:26;;;;;;;17.23;9.17;;;;;;;2.68;100.00;98080.38;5052046;28;20197;-83
2021/12/09 09:59:55;;;;;;;18.23;9.83;;;;;;;2.66;100.00;98068.31;5051089;28;20193;-83
2021/12/09 10:02:25;;;;;;;14.13;9.17;;;;;;;2.75;100.00;98067.84;5056476;27;20294;-83
2021/12/09 10:05:00;;;;;;;16.03;8.60;;;;;;;2.86;100.00;98071.63;5053613;28;20288;-83
2021/12/09 10:07:30;;;;;;;18.87;9.60;;;;;;;2.75;100.00;98073.09;5047549;28;20211;-84
2021/12/09 10:09:59;;;;;;;11.47;8.33;;;;;;;2.58;100.00;98087.81;5051388;28;20280;-83
2021/12/09 10:12:28;;;;;;;17.00;9.27;;;;;;;2.66;100.00;98078.78;5048330;28;20193;-84
2021/12/09 10:14:57;;;;;;;16.73;9.03;;;;;;;2.53;100.00;98081.16;5053670;28;20264;-83
2021/12/09 10:17:28;;;;;;;13.87;9.17;;;;;;;2.38;100.00;98089.72;5046826;28;20203;-83
2021/12/09 10:20:11;;;;;;;15.47;8.53;;;;;;;2.56;100.00;98087.06;5053792;28;20201;-83
2021/12/09 10:22:39;;;;;;;12.23;8.13;;;;;;;2.26;100.00;98084.16;5052306;28;20197;-83
2021/12/09 10:25:19;;;;;;;18.17;10.07;;;;;;;2.25;100.00;98089.47;5052308;28;20214;-83
2021/12/09 10:27:58;;;;;;;13.87;8.83;;;;;;;2.40;100.00;98086.09;5045564;28;20225;-83
2021/12/09 10:30:27;;;;;;;14.03;8.80;;;;;;;2.41;100.00;98084.34;5052623;28;20280;-83
2021/12/09 10:33:03;;;;;;;16.90;9.30;;;;;;;2.40;100.00;98075.66;5053326;28;20302;-84
2021/12/09 10:35:32;;;;;;;15.83;8.90;;;;;;;2.54;100.00;98073.22;5050291;28;20224;-83
2021/12/09 10:38:05;;;;;;;16.47;9.93;;;;;;;2.46;100.00;98077.13;5033103;28;20197;-83
2021/12/09 10:40:36;;;;;;;14.37;9.63;;;;;;;2.48;100.00;98064.84;5051876;28;20203;-83
2021/12/09 10:43:05;;;;;;;21.17;10.43;;;;;;;2.28;100.00;98066.66;5049498;28;20242;-83
2021/12/09 10:45:35;;;;;;;14.00;8.63;;;;;;;2.47;100.00;98064.00;5052351;28;20235;-83
2021/12/09 10:48:21;;;;;;;21.07;10.93;;;;;;;2.21;100.00;98065.25;5059474;27;20196;-83
2021/12/09 10:51:07;;;;;;;17.93;11.33;;;;;;;2.14;100.00;98071.69;5052197;28;20189;-83
2021/12/09 10:53:46;;;;;;;22.80;13.13;;;;;;;2.25;100.00;98066.81;5050041;28;20193;-83
2021/12/09 10:56:26;;;;;;;20.03;10.30;;;;;;;2.34;100.00;98067.28;5050231;28;20262;-83
2021/12/09 10:58:56;;;;;;;20.50;9.87;;;;;;;2.51;100.00;98069.91;5050063;28;20203;-83
2021/12/09 11:01:25;;;;;;;21.33;10.47;;;;;;;2.36;100.00;98079.34;5054783;28;20644;-83
2021/12/09 11:04:00;;;;;;;21.27;11.60;;;;;;;2.42;100.00;98075.59;5050950;28;20193;-83
2021/12/09 11:06:33;;;;;;;21.00;11.40;;;;;;;2.34;100.00;98070.75;5052226;28;20199;-83
2021/12/09 11:09:02;;;;;;;17.23;9.83;;;;;;;2.36;100.00;98073.28;5052226;28;20200;-83
2021/12/09 11:11:33;;;;;;;19.80;12.07;;;;;;;2.26;100.00;98080.72;5055993;27;20212;-84
2021/12/09 11:14:11;;;;;;;15.10;9.07;;;;;;;2.27;100.00;98077.19;5064195;27;20197;-84
2021/12/09 11:16:42;;;;;;;17.20;9.87;;;;;;;2.23;100.00;98076.50;5087363;28;20227;-83
2021/12/09 11:19:15;;;;;;;20.53;9.47;;;;;;;2.26;100.00;98067.66;5088334;28;20208;-83
2021/12/09 11:21:48;;;;;;;15.43;9.57;;;;;;;2.48;100.00;98065.69;5032797;28;20676;-83
2021/12/09 11:24:20;;;;;;;17.47;9.20;;;;;;;2.56;100.00;98075.75;5028163;28;20208;-84
2021/12/09 11:26:55;;;;;;;16.47;9.80;;;;;;;2.37;100.00;98069.75;5032058;28;20206;-84
2021/12/09 11:29:27;;;;;;;18.40;9.87;;;;;;;2.52;100.00;98067.25;5033531;28;20303;-84
2021/12/09 11:32:04;;;;;;;17.53;9.20;;;;;;;2.56;100.00;98060.09;5030797;28;20202;-84